Terminal Aerodrome Forecast
Issued by NWS Cleveland, OH

Home | Current Version | Previous Version | Text Only | Print | Product List | Glossary Off
Versions: 1 2 3 4 5 6 7 8 9 10 11 12 13 14 15 16 17 18 19 20 21 22 23 24 25

000
FTUS41 KCLE 010500
TAFERI
TAF
KERI 010520Z 0106/0206 VRB04KT P6SM BKN250
     FM010700 14004KT P6SM -SN OVC050
     FM010800 15004KT 5SM -SN SCT015 OVC035
      TEMPO 0108/0110 3SM -SN BKN008 OVC015
     FM011000 16005KT 2SM -SN OVC010
     FM011200 18007KT 1SM -SN OVC008
     FM011800 23007KT 3SM -SN BR OVC015
     FM020000 25008KT 6SM -SN OVC020=

USA.gov is the U.S. government's official web portal to all federal, state and local government web resources and services.